createdAt,value
2023-02-02T00:00:23.567Z,98440.84
2023-02-02T00:05:26.232Z,98428.22
2023-02-02T00:10:29.221Z,98434.31
2023-02-02T00:15:34.545Z,98435.13
2023-02-02T00:20:37.223Z,98422.28
2023-02-02T00:25:39.787Z,98423.09
2023-02-02T00:30:42.408Z,98424.88
2023-02-02T00:35:45.072Z,98422.97
2023-02-02T00:40:47.657Z,98405.72
2023-02-02T00:45:50.365Z,98419.31
2023-02-02T00:50:53.667Z,98415.81
2023-02-02T00:55:56.225Z,98428.56
2023-02-02T01:00:58.946Z,98414.03
2023-02-02T01:06:01.495Z,98427.69
2023-02-02T01:11:04.283Z,98409.69
2023-02-02T01:16:07.580Z,98412.09
2023-02-02T01:21:11.744Z,98385.59
2023-02-02T01:26:15.190Z,98411.38
2023-02-02T01:31:19.569Z,98385.75
2023-02-02T01:36:24.215Z,98406.34
2023-02-02T01:41:27.899Z,98408.22
2023-02-02T01:46:37.427Z,98393.50
2023-02-02T01:51:48.949Z,98414.81
2023-02-02T01:56:58.003Z,98412.22
2023-02-02T02:02:02.677Z,98416.63
2023-02-02T02:07:06.368Z,98407.13
2023-02-02T02:12:14.523Z,98414.91
2023-02-02T02:17:40.755Z,98409.00
2023-02-02T02:23:27.203Z,98408.16
2023-02-02T02:28:48.323Z,98408.03
2023-02-02T02:34:14.195Z,98409.78
2023-02-02T02:39:35.181Z,98414.09
2023-02-02T02:44:37.826Z,98420.09
2023-02-02T02:49:45.867Z,98413.19
2023-02-02T02:54:54.922Z,98411.44
2023-02-02T03:00:24.627Z,98408.03
2023-02-02T03:05:37.127Z,98424.09
2023-02-02T03:10:42.762Z,98414.81
2023-02-02T03:15:46.494Z,98410.63
2023-02-02T03:20:49.081Z,98408.00
2023-02-02T03:25:51.922Z,98404.50
2023-02-02T03:30:55.346Z,98430.94
2023-02-02T03:35:57.996Z,98426.69
2023-02-02T03:41:00.693Z,98367.81
2023-02-02T03:46:05.675Z,98421.47
2023-02-02T03:51:11.775Z,98420.69
2023-02-02T03:56:15.315Z,98428.44
2023-02-02T04:01:18.096Z,98413.13
2023-02-02T04:06:20.854Z,98427.47
2023-02-02T04:11:23.451Z,98420.69
2023-02-02T04:16:26.186Z,98416.28
2023-02-02T04:21:28.749Z,98429.19
2023-02-02T04:26:31.407Z,98429.97
2023-02-02T04:31:34.056Z,98435.84
2023-02-02T04:36:36.759Z,98435.69
2023-02-02T04:41:39.377Z,98445.81
2023-02-02T04:46:43.449Z,98439.66
2023-02-02T04:51:46.151Z,98449.13
2023-02-02T04:56:48.829Z,98449.91
2023-02-02T05:01:51.489Z,98463.53
2023-02-02T05:06:54.223Z,98460.06
2023-02-02T05:11:56.761Z,98432.66
2023-02-02T05:16:59.517Z,98464.25
2023-02-02T05:22:02.148Z,98460.91
2023-02-02T05:27:04.867Z,98471.84
2023-02-02T05:32:07.509Z,98469.53
2023-02-02T05:37:10.147Z,98467.91
2023-02-02T05:42:12.680Z,98460.28
2023-02-02T05:47:15.292Z,98473.16
2023-02-02T05:52:22.500Z,98468.03
2023-02-02T05:57:25.021Z,98470.78
2023-02-02T06:02:27.606Z,98468.47
2023-02-02T06:07:30.204Z,98472.69
2023-02-02T06:12:32.778Z,98475.34
2023-02-02T06:17:35.411Z,98484.94
2023-02-02T06:22:38.114Z,98482.50
2023-02-02T06:27:40.737Z,98485.94
2023-02-02T06:32:43.348Z,98486.00
2023-02-02T06:37:45.943Z,98486.78
2023-02-02T06:42:48.487Z,98458.56
2023-02-02T06:47:51.596Z,98462.06
2023-02-02T06:52:54.268Z,98496.25
2023-02-02T06:58:01.462Z,98502.31
2023-02-02T07:03:04.465Z,98500.66
2023-02-02T07:08:07.314Z,98498.16
2023-02-02T07:13:10.148Z,98512.44
2023-02-02T07:18:12.657Z,98489.44
2023-02-02T07:23:15.201Z,98521.09
2023-02-02T07:28:17.716Z,98522.94
2023-02-02T07:33:20.280Z,98522.13
2023-02-02T07:38:22.785Z,98489.84
2023-02-02T07:43:25.336Z,98520.75
2023-02-02T07:48:31.584Z,98517.53
2023-02-02T07:53:35.179Z,98517.34
2023-02-02T07:58:38.279Z,98513.88
2023-02-02T08:03:42.951Z,98520.78
2023-02-02T08:08:46.740Z,98505.53
2023-02-02T08:13:51.749Z,98508.13
2023-02-02T08:18:54.318Z,98526.94
2023-02-02T08:23:57.145Z,98518.50
2023-02-02T08:29:02.803Z,98506.78
2023-02-02T08:34:05.988Z,98491.41
2023-02-02T08:39:12.173Z,98522.69
2023-02-02T08:44:16.481Z,98514.34
2023-02-02T08:49:19.407Z,98520.25
2023-02-02T08:54:22.128Z,98516.88
2023-02-02T08:59:25.037Z,98522.78
2023-02-02T09:04:27.658Z,98519.44
2023-02-02T09:09:30.879Z,98524.34
2023-02-02T09:14:34.123Z,98506.63
2023-02-02T09:19:36.833Z,98522.72
2023-02-02T09:24:39.379Z,98504.19
2023-02-02T09:29:42.013Z,98502.59
2023-02-02T09:34:44.799Z,98514.34
2023-02-02T09:39:47.548Z,98511.91
2023-02-02T09:44:59.718Z,98511.94
2023-02-02T09:50:28.440Z,98494.91
2023-02-02T09:55:37.130Z,98491.56
2023-02-02T10:00:48.560Z,98494.94
2023-02-02T10:06:35.628Z,98493.34
2023-02-02T10:12:00.457Z,98486.53
2023-02-02T10:17:26.143Z,98480.66
2023-02-02T10:22:33.245Z,98467.72
2023-02-02T10:27:39.479Z,98474.53
2023-02-02T10:33:00.978Z,98479.63
2023-02-02T10:38:32.445Z,98468.53
2023-02-02T10:43:46.832Z,98468.66
2023-02-02T10:48:50.724Z,98467.91
2023-02-02T10:53:55.378Z,98441.47
2023-02-02T10:59:01.328Z,98457.69
2023-02-02T11:04:22.544Z,98449.16
2023-02-02T11:09:31.435Z,98448.31
2023-02-02T11:14:45.076Z,98455.09
2023-02-02T11:19:50.033Z,98457.66
2023-02-02T11:24:53.969Z,98461.06
2023-02-02T11:29:59.493Z,98462.78
2023-02-02T11:35:01.983Z,98468.72
2023-02-02T11:40:18.092Z,98475.56
2023-02-02T11:45:37.269Z,98477.28
2023-02-02T11:50:47.559Z,98473.88
2023-02-02T11:55:50.910Z,98486.66
2023-02-02T12:00:57.344Z,98480.69
2023-02-02T12:06:02.324Z,98484.97
2023-02-02T12:11:07.292Z,98485.81
2023-02-02T12:16:15.817Z,98490.91
2023-02-02T12:21:38.667Z,98485.78
2023-02-02T12:26:50.388Z,98494.25
2023-02-02T12:32:18.094Z,98499.25
2023-02-02T12:37:24.741Z,98494.13
2023-02-02T12:43:00.568Z,98484.69
2023-02-02T12:48:12.463Z,98495.75
2023-02-02T12:53:20.984Z,98499.13
2023-02-02T12:58:58.673Z,98505.03
2023-02-02T13:04:14.088Z,98497.44
2023-02-02T13:09:29.869Z,98488.09
2023-02-02T13:14:38.343Z,98515.25
2023-02-02T13:19:44.892Z,98497.28
2023-02-02T13:24:50.209Z,98507.47
2023-02-02T13:30:25.606Z,98515.88
2023-02-02T13:35:45.745Z,98521.72
2023-02-02T13:40:50.174Z,98521.59
2023-02-02T13:46:12.438Z,98496.81
2023-02-02T13:51:33.880Z,98533.47
2023-02-02T13:56:56.741Z,98528.31
2023-02-02T14:02:00.120Z,98529.22
2023-02-02T14:07:05.738Z,98531.84
2023-02-02T14:12:11.233Z,98535.16
2023-02-02T14:17:13.712Z,98537.72
2023-02-02T14:22:54.828Z,98529.06
2023-02-02T14:28:02.383Z,98536.81
2023-02-02T14:33:27.471Z,98537.72
2023-02-02T14:38:36.479Z,98550.31
2023-02-02T14:43:49.880Z,98545.28
2023-02-02T14:48:57.251Z,98559.97
2023-02-02T14:54:02.615Z,98557.41
2023-02-02T14:59:07.606Z,98557.38
2023-02-02T15:04:30.281Z,98573.72
2023-02-02T15:09:39.411Z,98567.69
2023-02-02T15:15:14.410Z,98567.53
2023-02-02T15:20:40.402Z,98572.69
2023-02-02T15:25:59.650Z,98568.44
2023-02-02T15:31:09.070Z,98572.47
2023-02-02T15:36:18.767Z,98573.22
2023-02-02T15:41:45.264Z,98556.19
2023-02-02T15:46:49.013Z,98573.31
2023-02-02T15:51:58.175Z,98587.91
2023-02-02T15:57:02.950Z,98596.50
2023-02-02T16:02:11.711Z,98591.25
2023-02-02T16:07:19.951Z,98595.59
2023-02-02T16:12:23.793Z,98598.13
2023-02-02T16:17:32.811Z,98595.50
2023-02-02T16:22:38.081Z,98588.75
2023-02-02T16:27:46.247Z,98598.16
2023-02-02T16:32:48.896Z,98611.66
2023-02-02T16:37:51.460Z,98601.47
2023-02-02T16:43:15.662Z,98609.81
2023-02-02T16:48:45.089Z,98622.66
2023-02-02T16:53:59.333Z,98608.06
2023-02-02T16:59:15.364Z,98627.81
2023-02-02T17:04:36.938Z,98618.41
2023-02-02T17:09:41.258Z,98632.97
2023-02-02T17:14:54.321Z,98643.25
2023-02-02T17:19:56.987Z,98644.81
2023-02-02T17:25:00.171Z,98639.50
2023-02-02T17:30:04.758Z,98649.56
2023-02-02T17:35:15.201Z,98638.63
2023-02-02T17:40:19.884Z,98651.41
2023-02-02T17:45:34.099Z,98644.66
2023-02-02T17:50:37.432Z,98642.06
2023-02-02T17:55:42.615Z,98646.19
2023-02-02T18:00:54.048Z,98657.28
2023-02-02T18:06:02.600Z,98633.44
2023-02-02T18:11:05.391Z,98654.75
2023-02-02T18:16:11.503Z,98651.34
2023-02-02T18:21:14.337Z,98629.06
2023-02-02T18:26:20.531Z,98657.19
2023-02-02T18:31:26.924Z,98647.88
2023-02-02T18:36:34.064Z,98638.31
2023-02-02T18:41:38.920Z,98663.97
2023-02-02T18:46:41.885Z,98664.75
2023-02-02T18:51:44.702Z,98677.44
2023-02-02T18:56:47.455Z,98677.38
2023-02-02T19:01:50.140Z,98681.69
2023-02-02T19:07:12.080Z,98675.00
2023-02-02T19:12:15.577Z,98674.16
2023-02-02T19:17:22.522Z,98680.03
2023-02-02T19:22:30.600Z,98674.75
2023-02-02T19:27:36.279Z,98635.56
2023-02-02T19:32:39.817Z,98675.88
2023-02-02T19:37:43.406Z,98662.19
2023-02-02T19:42:57.684Z,98673.91
2023-02-02T19:48:06.828Z,98678.16
2023-02-02T19:53:21.537Z,98687.53
2023-02-02T19:58:29.665Z,98676.19
2023-02-02T20:03:43.034Z,98697.63
2023-02-02T20:08:46.716Z,98671.28
2023-02-02T20:13:51.095Z,98684.09
2023-02-02T20:18:56.752Z,98685.94
2023-02-02T20:23:59.517Z,98684.22
2023-02-02T20:29:23.629Z,98685.09
2023-02-02T20:34:32.921Z,98690.75
2023-02-02T20:39:39.844Z,98689.19
2023-02-02T20:44:42.830Z,98703.63
2023-02-02T20:49:45.815Z,98703.44
2023-02-02T20:54:48.988Z,98692.97
2023-02-02T20:59:57.540Z,98699.13
2023-02-02T21:05:01.482Z,98699.25
2023-02-02T21:10:06.883Z,98711.00
2023-02-02T21:15:10.195Z,98711.06
2023-02-02T21:20:15.068Z,98698.31
2023-02-02T21:25:17.737Z,98706.03
2023-02-02T21:30:20.359Z,98703.50
2023-02-02T21:35:24.804Z,98716.28
2023-02-02T21:40:32.956Z,98709.50
2023-02-02T21:45:37.780Z,98712.06
2023-02-02T21:50:41.753Z,98716.22
2023-02-02T21:55:46.097Z,98713.56
2023-02-02T22:00:50.153Z,98707.72
2023-02-02T22:05:59.935Z,98712.03
2023-02-02T22:11:02.881Z,98717.09
2023-02-02T22:16:17.742Z,98726.44
2023-02-02T22:21:21.217Z,98726.50
2023-02-02T22:26:34.192Z,98710.47
2023-02-02T22:31:36.820Z,98721.47
2023-02-02T22:36:39.517Z,98712.97
2023-02-02T22:41:42.345Z,98716.16
2023-02-02T22:46:45.005Z,98714.53
2023-02-02T22:51:47.644Z,98715.44
2023-02-02T22:56:50.218Z,98679.59
2023-02-02T23:01:52.743Z,98703.63
2023-02-02T23:06:55.289Z,98701.72
2023-02-02T23:11:57.883Z,98674.41
2023-02-02T23:17:00.425Z,98707.81
2023-02-02T23:22:03.134Z,98712.91
2023-02-02T23:27:05.825Z,98711.19
2023-02-02T23:32:08.473Z,98706.88
2023-02-02T23:37:11.430Z,98706.91
2023-02-02T23:42:14.134Z,98703.50
2023-02-02T23:47:16.903Z,98692.63
2023-02-02T23:52:19.571Z,98664.56
2023-02-02T23:57:22.234Z,98693.63
